sensor_id;sensor_type;location;lat;lon;timestamp;temperature;humidity
66594;DHT22;53450;42.584;23.366;2023-12-04T01:17:49;-1.84;81.55
66594;DHT22;53450;42.584;23.366;2023-12-04T01:20:15;-1.81;81.76
66594;DHT22;53450;42.584;23.366;2023-12-04T01:22:40;-1.75;81.70
66594;DHT22;53450;42.584;23.366;2023-12-04T01:25:06;-1.71;80.96
66594;DHT22;53450;42.584;23.366;2023-12-04T01:27:31;-1.71;81.02
66594;DHT22;53450;42.584;23.366;2023-12-04T01:29:57;-1.70;80.93
66594;DHT22;53450;42.584;23.366;2023-12-04T01:32:23;-1.78;81.21
66594;DHT22;53450;42.584;23.366;2023-12-04T01:34:48;-1.71;81.48
66594;DHT22;53450;42.584;23.366;2023-12-04T01:37:13;-1.60;81.44
66594;DHT22;53450;42.584;23.366;2023-12-04T01:39:39;-1.63;81.21
66594;DHT22;53450;42.584;23.366;2023-12-04T01:42:04;-1.75;81.10
66594;DHT22;53450;42.584;23.366;2023-12-04T01:44:30;-1.99;81.00
66594;DHT22;53450;42.584;23.366;2023-12-04T01:46:55;-2.15;81.50
66594;DHT22;53450;42.584;23.366;2023-12-04T01:49:21;-1.99;81.65
66594;DHT22;53450;42.584;23.366;2023-12-04T01:51:46;-1.85;76.25
66594;DHT22;53450;42.584;23.366;2023-12-04T01:54:12;-1.87;75.21
66594;DHT22;53450;42.584;23.366;2023-12-04T01:56:38;-1.78;74.07
66594;DHT22;53450;42.584;23.366;2023-12-04T01:59:04;-1.85;72.02
66594;DHT22;53450;42.584;23.366;2023-12-04T02:01:30;-2.01;72.34
66594;DHT22;53450;42.584;23.366;2023-12-04T02:03:55;-2.22;72.47
66594;DHT22;53450;42.584;23.366;2023-12-04T02:06:22;-2.26;71.91
66594;DHT22;53450;42.584;23.366;2023-12-04T02:08:47;-2.26;72.27
66594;DHT22;53450;42.584;23.366;2023-12-04T02:11:13;-2.29;72.35
66594;DHT22;53450;42.584;23.366;2023-12-04T02:13:39;-2.45;72.83
66594;DHT22;53450;42.584;23.366;2023-12-04T02:16:04;-2.50;73.60
66594;DHT22;53450;42.584;23.366;2023-12-04T02:18:34;-2.50;73.47
66594;DHT22;53450;42.584;23.366;2023-12-04T02:21:00;-2.69;74.03
66594;DHT22;53450;42.584;23.366;2023-12-04T02:23:26;-2.83;75.14
66594;DHT22;53450;42.584;23.366;2023-12-04T02:25:51;-2.76;75.42
66594;DHT22;53450;42.584;23.366;2023-12-04T02:28:18;-2.54;75.99
66594;DHT22;53450;42.584;23.366;2023-12-04T02:30:45;-2.59;75.25
66594;DHT22;53450;42.584;23.366;2023-12-04T02:33:11;-2.52;75.22
66594;DHT22;53450;42.584;23.366;2023-12-04T02:35:36;-2.69;74.52
66594;DHT22;53450;42.584;23.366;2023-12-04T02:38:03;-2.60;75.68
66594;DHT22;53450;42.584;23.366;2023-12-04T02:40:29;-2.69;75.13
66594;DHT22;53450;42.584;23.366;2023-12-04T02:42:54;-2.81;75.39
66594;DHT22;53450;42.584;23.366;2023-12-04T02:45:20;-2.92;75.34
66594;DHT22;53450;42.584;23.366;2023-12-04T02:47:45;-2.77;76.13
66594;DHT22;53450;42.584;23.366;2023-12-04T02:50:10;-2.71;76.22
66594;DHT22;53450;42.584;23.366;2023-12-04T02:52:36;-2.63;75.19
66594;DHT22;53450;42.584;23.366;2023-12-04T02:55:01;-2.73;75.69
66594;DHT22;53450;42.584;23.366;2023-12-04T02:57:27;-2.69;75.53
66594;DHT22;53450;42.584;23.366;2023-12-04T02:59:53;-2.60;74.23
66594;DHT22;53450;42.584;23.366;2023-12-04T03:02:18;-2.63;73.78
66594;DHT22;53450;42.584;23.366;2023-12-04T03:04:45;-2.53;72.34
66594;DHT22;53450;42.584;23.366;2023-12-04T03:07:10;-2.59;73.33
66594;DHT22;53450;42.584;23.366;2023-12-04T03:09:36;-2.81;71.07
66594;DHT22;53450;42.584;23.366;2023-12-04T03:12:01;-2.87;70.67
66594;DHT22;53450;42.584;23.366;2023-12-04T03:14:27;-2.78;70.76
66594;DHT22;53450;42.584;23.366;2023-12-04T03:16:52;-2.61;71.30
66594;DHT22;53450;42.584;23.366;2023-12-04T03:19:17;-2.70;71.96
66594;DHT22;53450;42.584;23.366;2023-12-04T03:21:43;-2.67;74.25
66594;DHT22;53450;42.584;23.366;2023-12-04T03:24:08;-2.57;76.91
66594;DHT22;53450;42.584;23.366;2023-12-04T03:26:34;-2.69;77.66
66594;DHT22;53450;42.584;23.366;2023-12-04T03:29:00;-2.78;78.18
66594;DHT22;53450;42.584;23.366;2023-12-04T03:31:25;-2.77;78.62
66594;DHT22;53450;42.584;23.366;2023-12-04T03:33:51;-2.81;78.30
66594;DHT22;53450;42.584;23.366;2023-12-04T03:36:16;-2.84;79.30
66594;DHT22;53450;42.584;23.366;2023-12-04T03:38:41;-2.78;78.70
66594;DHT22;53450;42.584;23.366;2023-12-04T03:41:16;-2.76;78.61
66594;DHT22;53450;42.584;23.366;2023-12-04T03:43:42;-2.85;78.25
66594;DHT22;53450;42.584;23.366;2023-12-04T03:46:08;-2.73;78.63
66594;DHT22;53450;42.584;23.366;2023-12-04T03:48:33;-2.76;77.86
66594;DHT22;53450;42.584;23.366;2023-12-04T03:50:58;-2.81;76.72
66594;DHT22;53450;42.584;23.366;2023-12-04T03:53:25;-2.90;76.94
66594;DHT22;53450;42.584;23.366;2023-12-04T03:55:51;-2.74;78.52
66594;DHT22;53450;42.584;23.366;2023-12-04T03:58:16;-2.71;77.67
66594;DHT22;53450;42.584;23.366;2023-12-04T04:00:42;-2.74;76.67
66594;DHT22;53450;42.584;23.366;2023-12-04T04:03:09;-2.73;77.03
66594;DHT22;53450;42.584;23.366;2023-12-04T04:05:34;-2.87;77.78
66594;DHT22;53450;42.584;23.366;2023-12-04T04:08:02;-2.91;78.25
66594;DHT22;53450;42.584;23.366;2023-12-04T04:10:28;-3.12;78.21
66594;DHT22;53450;42.584;23.366;2023-12-04T04:12:53;-2.91;78.14
66594;DHT22;53450;42.584;23.366;2023-12-04T04:15:19;-2.92;77.88
66594;DHT22;53450;42.584;23.366;2023-12-04T04:17:44;-3.08;77.61
66594;DHT22;53450;42.584;23.366;2023-12-04T04:20:10;-3.11;77.40
66594;DHT22;53450;42.584;23.366;2023-12-04T04:22:37;-3.15;77.96
66594;DHT22;53450;42.584;23.366;2023-12-04T04:25:05;-3.15;77.68
66594;DHT22;53450;42.584;23.366;2023-12-04T04:27:31;-3.12;78.20
66594;DHT22;53450;42.584;23.366;2023-12-04T04:29:56;-2.91;79.10
66594;DHT22;53450;42.584;23.366;2023-12-04T04:32:22;-2.84;78.26
66594;DHT22;53450;42.584;23.366;2023-12-04T04:34:48;-2.91;78.09
66594;DHT22;53450;42.584;23.366;2023-12-04T04:37:13;-2.92;78.95
66594;DHT22;53450;42.584;23.366;2023-12-04T04:39:41;-3.02;78.93
66594;DHT22;53450;42.584;23.366;2023-12-04T04:42:07;-3.15;79.38
66594;DHT22;53450;42.584;23.366;2023-12-04T04:44:32;-3.05;79.33
66594;DHT22;53450;42.584;23.366;2023-12-04T04:46:58;-2.88;79.41
66594;DHT22;53450;42.584;23.366;2023-12-04T04:49:23;-2.81;78.93
66594;DHT22;53450;42.584;23.366;2023-12-04T04:51:49;-2.87;78.26
66594;DHT22;53450;42.584;23.366;2023-12-04T04:54:14;-3.07;78.86
66594;DHT22;53450;42.584;23.366;2023-12-04T04:56:40;-3.18;79.43
66594;DHT22;53450;42.584;23.366;2023-12-04T04:59:05;-3.25;79.55
66594;DHT22;53450;42.584;23.366;2023-12-04T05:01:31;-3.28;79.38
66594;DHT22;53450;42.584;23.366;2023-12-04T05:03:56;-3.48;79.31
66594;DHT22;53450;42.584;23.366;2023-12-04T05:06:22;-3.64;80.07
66594;DHT22;53450;42.584;23.366;2023-12-04T05:08:48;-3.48;80.37
66594;DHT22;53450;42.584;23.366;2023-12-04T05:11:16;-3.32;80.22
66594;DHT22;53450;42.584;23.366;2023-12-04T05:13:42;-3.27;79.36
66594;DHT22;53450;42.584;23.366;2023-12-04T05:16:07;-3.76;80.08
66594;DHT22;53450;42.584;23.366;2023-12-04T05:18:33;-3.95;81.02
66594;DHT22;53450;42.584;23.366;2023-12-04T05:20:58;-3.90;81.27
66594;DHT22;53450;42.584;23.366;2023-12-04T05:23:24;-3.76;81.12
66594;DHT22;53450;42.584;23.366;2023-12-04T05:25:49;-3.59;81.26
66594;DHT22;53450;42.584;23.366;2023-12-04T05:28:15;-3.53;81.15
66594;DHT22;53450;42.584;23.366;2023-12-04T05:30:40;-3.49;80.55
66594;DHT22;53450;42.584;23.366;2023-12-04T05:33:06;-3.56;80.58
66594;DHT22;53450;42.584;23.366;2023-12-04T05:35:31;-3.84;80.79
66594;DHT22;53450;42.584;23.366;2023-12-04T05:37:59;-3.76;81.34
66594;DHT22;53450;42.584;23.366;2023-12-04T05:40:25;-3.59;80.83
66594;DHT22;53450;42.584;23.366;2023-12-04T05:42:50;-3.52;80.35
66594;DHT22;53450;42.584;23.366;2023-12-04T05:45:15;-3.53;79.40
66594;DHT22;53450;42.584;23.366;2023-12-04T05:47:41;-3.62;79.54
66594;DHT22;53450;42.584;23.366;2023-12-04T05:50:07;-3.60;80.05
66594;DHT22;53450;42.584;23.366;2023-12-04T05:52:32;-3.52;79.80
66594;DHT22;53450;42.584;23.366;2023-12-04T05:54:58;-3.46;79.35
66594;DHT22;53450;42.584;23.366;2023-12-04T05:57:23;-3.49;79.83
66594;DHT22;53450;42.584;23.366;2023-12-04T05:59:49;-3.53;80.12
66594;DHT22;53450;42.584;23.366;2023-12-04T06:02:14;-3.57;80.24
66594;DHT22;53450;42.584;23.366;2023-12-04T06:04:40;-3.64;79.93
66594;DHT22;53450;42.584;23.366;2023-12-04T06:07:06;-3.78;80.54
66594;DHT22;53450;42.584;23.366;2023-12-04T06:09:32;-3.91;80.43
66594;DHT22;53450;42.584;23.366;2023-12-04T06:11:57;-3.95;80.87
66594;DHT22;53450;42.584;23.366;2023-12-04T06:14:23;-3.76;80.06
66594;DHT22;53450;42.584;23.366;2023-12-04T06:16:48;-3.55;78.95
66594;DHT22;53450;42.584;23.366;2023-12-04T06:19:14;-3.49;79.00
66594;DHT22;53450;42.584;23.366;2023-12-04T06:21:40;-3.56;79.69
66594;DHT22;53450;42.584;23.366;2023-12-04T06:24:05;-3.39;80.42
66594;DHT22;53450;42.584;23.366;2023-12-04T06:26:31;-3.22;80.31
66594;DHT22;53450;42.584;23.366;2023-12-04T06:28:57;-3.12;79.87
66594;DHT22;53450;42.584;23.366;2023-12-04T06:31:22;-2.99;79.33
66594;DHT22;53450;42.584;23.366;2023-12-04T06:33:48;-3.31;79.76
66594;DHT22;53450;42.584;23.366;2023-12-04T06:36:14;-3.35;79.30
66594;DHT22;53450;42.584;23.366;2023-12-04T06:38:40;-3.50;78.44
66594;DHT22;53450;42.584;23.366;2023-12-04T06:41:06;-3.55;78.17
66594;DHT22;53450;42.584;23.366;2023-12-04T06:43:32;-3.49;78.58
66594;DHT22;53450;42.584;23.366;2023-12-04T06:45:58;-3.31;79.48
66594;DHT22;53450;42.584;23.366;2023-12-04T06:48:24;-3.18;79.53
66594;DHT22;53450;42.584;23.366;2023-12-04T06:50:49;-2.85;78.79
66594;DHT22;53450;42.584;23.366;2023-12-04T06:53:17;-2.50;78.17
66594;DHT22;53450;42.584;23.366;2023-12-04T06:55:42;-2.23;75.46
66594;DHT22;53450;42.584;23.366;2023-12-04T06:58:08;-2.30;71.35
66594;DHT22;53450;42.584;23.366;2023-12-04T07:00:33;-2.13;66.71
66594;DHT22;53450;42.584;23.366;2023-12-04T07:02:59;-1.99;66.17
66594;DHT22;53450;42.584;23.366;2023-12-04T07:05:24;-1.97;67.66
66594;DHT22;53450;42.584;23.366;2023-12-04T07:07:50;-2.01;69.68
66594;DHT22;53450;42.584;23.366;2023-12-04T07:10:15;-2.28;70.95
66594;DHT22;53450;42.584;23.366;2023-12-04T07:12:41;-2.19;73.27
66594;DHT22;53450;42.584;23.366;2023-12-04T07:15:07;-2.03;69.76
66594;DHT22;53450;42.584;23.366;2023-12-04T07:17:33;-1.95;69.00
66594;DHT22;53450;42.584;23.366;2023-12-04T07:19:58;-1.92;69.34
66594;DHT22;53450;42.584;23.366;2023-12-04T07:22:24;-1.97;66.68
66594;DHT22;53450;42.584;23.366;2023-12-04T07:24:49;-1.92;66.24
66594;DHT22;53450;42.584;23.366;2023-12-04T07:27:15;-1.75;66.26
66594;DHT22;53450;42.584;23.366;2023-12-04T07:29:41;-1.42;66.47
66594;DHT22;53450;42.584;23.366;2023-12-04T07:32:07;-1.53;63.64
66594;DHT22;53450;42.584;23.366;2023-12-04T07:34:32;-1.43;64.01
66594;DHT22;53450;42.584;23.366;2023-12-04T07:36:58;-1.40;63.11
66594;DHT22;53450;42.584;23.366;2023-12-04T07:39:26;-1.39;63.02
66594;DHT22;53450;42.584;23.366;2023-12-04T07:41:55;-1.28;63.54
66594;DHT22;53450;42.584;23.366;2023-12-04T07:44:22;-1.35;63.27
66594;DHT22;53450;42.584;23.366;2023-12-04T07:46:52;-1.39;63.51
66594;DHT22;53450;42.584;23.366;2023-12-04T07:49:17;-1.53;63.42
66594;DHT22;53450;42.584;23.366;2023-12-04T07:51:48;-1.59;66.24
66594;DHT22;53450;42.584;23.366;2023-12-04T07:54:14;-1.36;67.99
66594;DHT22;53450;42.584;23.366;2023-12-04T07:56:40;-1.17;67.84
66594;DHT22;53450;42.584;23.366;2023-12-04T07:59:08;-1.29;66.00
66594;DHT22;53450;42.584;23.366;2023-12-04T08:01:35;-1.33;63.83
66594;DHT22;53450;42.584;23.366;2023-12-04T08:04:00;-1.28;64.87
66594;DHT22;53450;42.584;23.366;2023-12-04T08:06:26;-1.25;63.85
66594;DHT22;53450;42.584;23.366;2023-12-04T08:08:54;-1.38;64.81
66594;DHT22;53450;42.584;23.366;2023-12-04T08:11:22;-1.53;63.90
66594;DHT22;53450;42.584;23.366;2023-12-04T08:13:48;-1.47;64.22
66594;DHT22;53450;42.584;23.366;2023-12-04T08:16:14;-1.33;63.67
66594;DHT22;53450;42.584;23.366;2023-12-04T08:18:40;-1.06;63.51
66594;DHT22;53450;42.584;23.366;2023-12-04T08:21:09;-0.99;62.98
66594;DHT22;53450;42.584;23.366;2023-12-04T08:23:34;-1.38;62.25
66594;DHT22;53450;42.584;23.366;2023-12-04T08:26:00;-1.28;62.83
66594;DHT22;53450;42.584;23.366;2023-12-04T08:28:25;-1.19;61.95
66594;DHT22;53450;42.584;23.366;2023-12-04T08:30:51;-1.10;62.85
66594;DHT22;53450;42.584;23.366;2023-12-04T08:33:17;-1.25;62.15
66594;DHT22;53450;42.584;23.366;2023-12-04T08:35:45;-1.35;62.65
66594;DHT22;53450;42.584;23.366;2023-12-04T08:38:11;-1.30;62.64
66594;DHT22;53450;42.584;23.366;2023-12-04T08:40:37;-1.19;63.44
66594;DHT22;53450;42.584;23.366;2023-12-04T08:43:02;-1.16;61.22
66594;DHT22;53450;42.584;23.366;2023-12-04T08:45:31;-1.12;61.46
66594;DHT22;53450;42.584;23.366;2023-12-04T08:47:57;-1.01;61.88
66594;DHT22;53450;42.584;23.366;2023-12-04T08:50:25;-0.95;61.75
66594;DHT22;53450;42.584;23.366;2023-12-04T08:52:54;-0.78;61.96
66594;DHT22;53450;42.584;23.366;2023-12-04T08:55:20;-0.64;61.95
66594;DHT22;53450;42.584;23.366;2023-12-04T08:57:45;-0.65;62.49
66594;DHT22;53450;42.584;23.366;2023-12-04T09:00:11;-0.68;61.90
66594;DHT22;53450;42.584;23.366;2023-12-04T09:02:37;-0.67;61.05
66594;DHT22;53450;42.584;23.366;2023-12-04T09:05:03;-0.72;60.58
66594;DHT22;53450;42.584;23.366;2023-12-04T09:07:28;-0.54;60.96
66594;DHT22;53450;42.584;23.366;2023-12-04T09:09:54;-0.49;59.10
66594;DHT22;53450;42.584;23.366;2023-12-04T09:12:20;-0.33;59.18
66594;DHT22;53450;42.584;23.366;2023-12-04T09:14:45;-0.13;60.22
66594;DHT22;53450;42.584;23.366;2023-12-04T09:17:19;0.04;60.29
66594;DHT22;53450;42.584;23.366;2023-12-04T09:19:46;0.18;59.20
66594;DHT22;53450;42.584;23.366;2023-12-04T09:22:11;0.09;58.97
66594;DHT22;53450;42.584;23.366;2023-12-04T09:24:42;0.09;60.25
66594;DHT22;53450;42.584;23.366;2023-12-04T09:27:10;0.12;61.61
66594;DHT22;53450;42.584;23.366;2023-12-04T09:29:36;0.15;59.86
66594;DHT22;53450;42.584;23.366;2023-12-04T09:32:03;0.07;60.06
66594;DHT22;53450;42.584;23.366;2023-12-04T09:34:29;0.01;61.12
66594;DHT22;53450;42.584;23.366;2023-12-04T09:36:55;-0.17;60.37
66594;DHT22;53450;42.584;23.366;2023-12-04T09:39:20;-0.13;61.57
66594;DHT22;53450;42.584;23.366;2023-12-04T09:41:46;0.08;59.75
66594;DHT22;53450;42.584;23.366;2023-12-04T09:44:12;-0.13;60.23
66594;DHT22;53450;42.584;23.366;2023-12-04T09:46:43;0.01;59.57
66594;DHT22;53450;42.584;23.366;2023-12-04T09:49:09;0.12;60.03
66594;DHT22;53450;42.584;23.366;2023-12-04T09:51:35;0.08;59.53
66594;DHT22;53450;42.584;23.366;2023-12-04T09:54:02;0.35;58.98
66594;DHT22;53450;42.584;23.366;2023-12-04T09:56:29;0.49;59.64
66594;DHT22;53450;42.584;23.366;2023-12-04T09:58:58;0.63;57.50
66594;DHT22;53450;42.584;23.366;2023-12-04T10:01:31;0.56;56.77
66594;DHT22;53450;42.584;23.366;2023-12-04T10:03:58;0.24;57.53
66594;DHT22;53450;42.584;23.366;2023-12-04T10:06:27;0.49;58.86
66594;DHT22;53450;42.584;23.366;2023-12-04T10:08:56;0.62;58.86
66594;DHT22;53450;42.584;23.366;2023-12-04T10:11:25;0.67;57.65
66594;DHT22;53450;42.584;23.366;2023-12-04T10:13:52;0.90;56.81
66594;DHT22;53450;42.584;23.366;2023-12-04T10:16:36;0.80;56.24
66594;DHT22;53450;42.584;23.366;2023-12-04T10:21:49;0.89;55.70
66594;DHT22;53450;42.584;23.366;2023-12-04T10:27:03;1.04;57.64
66594;DHT22;53450;42.584;23.366;2023-12-04T10:29:41;1.08;58.08
66594;DHT22;53450;42.584;23.366;2023-12-04T10:32:20;1.13;57.20
66594;DHT22;53450;42.584;23.366;2023-12-04T10:34:54;1.54;56.26
66594;DHT22;53450;42.584;23.366;2023-12-04T10:37:24;1.45;55.10
66594;DHT22;53450;42.584;23.366;2023-12-04T10:39:54;1.48;56.23
66594;DHT22;53450;42.584;23.366;2023-12-04T10:42:23;1.54;54.42
66594;DHT22;53450;42.584;23.366;2023-12-04T10:44:50;1.52;54.05
66594;DHT22;53450;42.584;23.366;2023-12-04T10:47:23;0.84;57.85
66594;DHT22;53450;42.584;23.366;2023-12-04T10:49:52;0.94;57.26
66594;DHT22;53450;42.584;23.366;2023-12-04T10:52:18;1.39;58.37
66594;DHT22;53450;42.584;23.366;2023-12-04T10:54:48;1.24;55.74
66594;DHT22;53450;42.584;23.366;2023-12-04T10:57:16;1.31;54.64
66594;DHT22;53450;42.584;23.366;2023-12-04T10:59:45;1.63;55.46
66594;DHT22;53450;42.584;23.366;2023-12-04T11:02:12;1.82;54.58
66594;DHT22;53450;42.584;23.366;2023-12-04T11:04:41;1.68;55.87
66594;DHT22;53450;42.584;23.366;2023-12-04T11:07:07;1.65;56.53
66594;DHT22;53450;42.584;23.366;2023-12-04T11:09:37;1.54;54.43
66594;DHT22;53450;42.584;23.366;2023-12-04T11:12:04;1.52;55.38
66594;DHT22;53450;42.584;23.366;2023-12-04T11:14:34;1.31;56.36
66594;DHT22;53450;42.584;23.366;2023-12-04T11:17:04;1.28;55.45
66594;DHT22;53450;42.584;23.366;2023-12-04T11:19:34;1.63;57.66
66594;DHT22;53450;42.584;23.366;2023-12-04T11:22:00;1.68;55.32
66594;DHT22;53450;42.584;23.366;2023-12-04T11:24:27;1.56;56.70
66594;DHT22;53450;42.584;23.366;2023-12-04T11:26:53;1.27;55.86
66594;DHT22;53450;42.584;23.366;2023-12-04T11:29:19;1.41;57.60
66594;DHT22;53450;42.584;23.366;2023-12-04T11:31:51;1.30;56.91
66594;DHT22;53450;42.584;23.366;2023-12-04T11:34:17;1.21;56.69
66594;DHT22;53450;42.584;23.366;2023-12-04T11:36:43;1.34;57.07
66594;DHT22;53450;42.584;23.366;2023-12-04T11:39:22;1.32;56.79
66594;DHT22;53450;42.584;23.366;2023-12-04T11:42:25;1.27;56.31
66594;DHT22;53450;42.584;23.366;2023-12-04T11:44:57;1.34;56.33
66594;DHT22;53450;42.584;23.366;2023-12-04T11:47:30;1.28;57.57
66594;DHT22;53450;42.584;23.366;2023-12-04T11:49:57;1.34;58.10
66594;DHT22;53450;42.584;23.366;2023-12-04T11:52:32;1.49;57.41
66594;DHT22;53450;42.584;23.366;2023-12-04T11:55:00;1.37;57.76
66594;DHT22;53450;42.584;23.366;2023-12-04T11:57:28;1.58;57.72
66594;DHT22;53450;42.584;23.366;2023-12-04T12:00:13;1.60;57.04
66594;DHT22;53450;42.584;23.366;2023-12-04T12:05:32;1.18;58.14
66594;DHT22;53450;42.584;23.366;2023-12-04T12:08:05;1.41;58.09
66594;DHT22;53450;42.584;23.366;2023-12-04T12:10:31;1.30;59.57
66594;DHT22;53450;42.584;23.366;2023-12-04T12:12:57;1.21;59.47
66594;DHT22;53450;42.584;23.366;2023-12-04T12:15:22;1.07;59.88
66594;DHT22;53450;42.584;23.366;2023-12-04T12:17:48;1.30;60.07
66594;DHT22;53450;42.584;23.366;2023-12-04T12:20:17;1.59;60.49
66594;DHT22;53450;42.584;23.366;2023-12-04T12:22:43;1.39;58.70
66594;DHT22;53450;42.584;23.366;2023-12-04T12:25:12;1.52;59.43
66594;DHT22;53450;42.584;23.366;2023-12-04T12:27:43;1.52;59.87
66594;DHT22;53450;42.584;23.366;2023-12-04T12:30:14;1.63;59.38
66594;DHT22;53450;42.584;23.366;2023-12-04T12:32:40;1.72;59.01
66594;DHT22;53450;42.584;23.366;2023-12-04T12:35:06;1.82;59.60
66594;DHT22;53450;42.584;23.366;2023-12-04T12:37:35;2.03;58.63
66594;DHT22;53450;42.584;23.366;2023-12-04T12:40:00;1.97;57.94
66594;DHT22;53450;42.584;23.366;2023-12-04T12:42:27;1.99;58.42
66594;DHT22;53450;42.584;23.366;2023-12-04T12:44:53;2.14;58.65
66594;DHT22;53450;42.584;23.366;2023-12-04T12:47:19;1.90;58.68
66594;DHT22;53450;42.584;23.366;2023-12-04T12:49:44;1.83;58.34
66594;DHT22;53450;42.584;23.366;2023-12-04T12:52:10;1.75;58.01
66594;DHT22;53450;42.584;23.366;2023-12-04T12:54:42;1.72;58.92
66594;DHT22;53450;42.584;23.366;2023-12-04T12:57:08;1.56;57.98
66594;DHT22;53450;42.584;23.366;2023-12-04T12:59:37;1.48;58.28
66594;DHT22;53450;42.584;23.366;2023-12-04T13:02:02;1.48;58.31
66594;DHT22;53450;42.584;23.366;2023-12-04T13:04:50;1.38;58.59
66594;DHT22;53450;42.584;23.366;2023-12-04T13:07:15;1.38;58.79
66594;DHT22;53450;42.584;23.366;2023-12-04T13:09:41;1.44;58.17
66594;DHT22;53450;42.584;23.366;2023-12-04T13:12:08;1.51;58.67
66594;DHT22;53450;42.584;23.366;2023-12-04T13:14:35;1.41;59.68
66594;DHT22;53450;42.584;23.366;2023-12-04T13:17:01;1.35;59.55
66594;DHT22;53450;42.584;23.366;2023-12-04T13:19:26;1.27;59.74
66594;DHT22;53450;42.584;23.366;2023-12-04T13:21:52;1.24;59.43
66594;DHT22;53450;42.584;23.366;2023-12-04T13:24:17;1.21;60.01
66594;DHT22;53450;42.584;23.366;2023-12-04T13:26:43;1.21;59.58
66594;DHT22;53450;42.584;23.366;2023-12-04T13:29:09;1.37;61.18
66594;DHT22;53450;42.584;23.366;2023-12-04T13:31:35;1.48;59.21
66594;DHT22;53450;42.584;23.366;2023-12-04T13:34:01;1.39;59.46
66594;DHT22;53450;42.584;23.366;2023-12-04T13:36:28;1.32;59.49
66594;DHT22;53450;42.584;23.366;2023-12-04T13:38:54;1.34;59.52
66594;DHT22;53450;42.584;23.366;2023-12-04T13:41:20;1.20;60.46
66594;DHT22;53450;42.584;23.366;2023-12-04T13:44:07;1.17;60.91
66594;DHT22;53450;42.584;23.366;2023-12-04T13:46:33;1.24;61.34
66594;DHT22;53450;42.584;23.366;2023-12-04T13:48:58;1.18;61.30
66594;DHT22;53450;42.584;23.366;2023-12-04T13:51:25;1.07;62.21
66594;DHT22;53450;42.584;23.366;2023-12-04T13:53:54;1.07;62.55
66594;DHT22;53450;42.584;23.366;2023-12-04T13:56:26;0.90;62.47
66594;DHT22;53450;42.584;23.366;2023-12-04T13:59:10;1.17;61.83
66594;DHT22;53450;42.584;23.366;2023-12-04T14:01:43;1.27;62.02
66594;DHT22;53450;42.584;23.366;2023-12-04T14:04:09;1.31;62.33
66594;DHT22;53450;42.584;23.366;2023-12-04T14:06:34;1.28;62.43
66594;DHT22;53450;42.584;23.366;2023-12-04T14:09:00;1.31;61.50
66594;DHT22;53450;42.584;23.366;2023-12-04T14:11:28;1.34;63.18
66594;DHT22;53450;42.584;23.366;2023-12-04T14:13:53;1.32;64.57
66594;DHT22;53450;42.584;23.366;2023-12-04T14:16:20;1.35;64.97
66594;DHT22;53450;42.584;23.366;2023-12-04T14:18:45;1.21;63.78
66594;DHT22;53450;42.584;23.366;2023-12-04T14:21:11;1.17;63.40
66594;DHT22;53450;42.584;23.366;2023-12-04T14:23:36;1.17;63.65
66594;DHT22;53450;42.584;23.366;2023-12-04T14:26:02;1.08;63.58
66594;DHT22;53450;42.584;23.366;2023-12-04T14:28:28;0.98;63.68
66594;DHT22;53450;42.584;23.366;2023-12-04T14:30:53;0.89;64.45
66594;DHT22;53450;42.584;23.366;2023-12-04T14:33:19;0.79;64.80
66594;DHT22;53450;42.584;23.366;2023-12-04T14:35:45;0.77;64.94
66594;DHT22;53450;42.584;23.366;2023-12-04T14:38:10;0.79;65.22
66594;DHT22;53450;42.584;23.366;2023-12-04T14:40:36;0.84;65.80
66594;DHT22;53450;42.584;23.366;2023-12-04T14:43:01;0.93;65.68
66594;DHT22;53450;42.584;23.366;2023-12-04T14:45:27;0.87;65.95
66594;DHT22;53450;42.584;23.366;2023-12-04T14:47:53;0.86;67.46
66594;DHT22;53450;42.584;23.366;2023-12-04T14:50:22;0.80;69.09
66594;DHT22;53450;42.584;23.366;2023-12-04T14:52:48;0.58;70.11
66594;DHT22;53450;42.584;23.366;2023-12-04T14:55:19;0.39;71.13
66594;DHT22;53450;42.584;23.366;2023-12-04T14:57:48;0.24;71.92
66594;DHT22;53450;42.584;23.366;2023-12-04T15:00:19;0.17;72.40
66594;DHT22;53450;42.584;23.366;2023-12-04T15:02:54;0.17;72.73
66594;DHT22;53450;42.584;23.366;2023-12-04T15:05:38;0.12;72.44
66594;DHT22;53450;42.584;23.366;2023-12-04T15:08:22;0.09;72.49
66594;DHT22;53450;42.584;23.366;2023-12-04T15:11:00;0.14;72.69
66594;DHT22;53450;42.584;23.366;2023-12-04T15:13:44;0.01;73.15
66594;DHT22;53450;42.584;23.366;2023-12-04T15:16:31;-0.16;73.59
66594;DHT22;53450;42.584;23.366;2023-12-04T15:19:05;-0.19;73.89
66594;DHT22;53450;42.584;23.366;2023-12-04T15:21:34;-0.29;74.32
66594;DHT22;53450;42.584;23.366;2023-12-04T15:24:18;-0.43;74.98
66594;DHT22;53450;42.584;23.366;2023-12-04T15:26:43;-0.53;75.39
66594;DHT22;53450;42.584;23.366;2023-12-04T15:29:09;-0.58;75.79
66594;DHT22;53450;42.584;23.366;2023-12-04T15:31:35;-0.67;76.16
66594;DHT22;53450;42.584;23.366;2023-12-04T15:34:01;-0.72;76.55
66594;DHT22;53450;42.584;23.366;2023-12-04T15:36:26;-0.78;76.54
66594;DHT22;53450;42.584;23.366;2023-12-04T15:38:52;-0.85;77.08
66594;DHT22;53450;42.584;23.366;2023-12-04T15:41:17;-0.92;77.33
66594;DHT22;53450;42.584;23.366;2023-12-04T15:43:45;-0.91;77.30
66594;DHT22;53450;42.584;23.366;2023-12-04T15:46:14;-0.87;77.51
66594;DHT22;53450;42.584;23.366;2023-12-04T15:48:39;-0.89;77.57
66594;DHT22;53450;42.584;23.366;2023-12-04T15:51:05;-0.84;77.64
66594;DHT22;53450;42.584;23.366;2023-12-04T15:53:33;-0.81;77.45
66594;DHT22;53450;42.584;23.366;2023-12-04T15:55:59;-0.77;77.27
66594;DHT22;53450;42.584;23.366;2023-12-04T15:58:25;-0.75;77.05
66594;DHT22;53450;42.584;23.366;2023-12-04T16:00:50;-0.79;77.13
66594;DHT22;53450;42.584;23.366;2023-12-04T16:03:16;-0.75;76.90
66594;DHT22;53450;42.584;23.366;2023-12-04T16:05:44;-0.74;76.95
66594;DHT22;53450;42.584;23.366;2023-12-04T16:08:09;-0.75;77.33
66594;DHT22;53450;42.584;23.366;2023-12-04T16:10:35;-0.81;77.58
66594;DHT22;53450;42.584;23.366;2023-12-04T16:13:01;-0.84;77.77
66594;DHT22;53450;42.584;23.366;2023-12-04T16:15:27;-0.84;78.10
66594;DHT22;53450;42.584;23.366;2023-12-04T16:17:52;-0.82;78.02
66594;DHT22;53450;42.584;23.366;2023-12-04T16:20:18;-0.77;77.90
66594;DHT22;53450;42.584;23.366;2023-12-04T16:22:43;-0.77;77.70
66594;DHT22;53450;42.584;23.366;2023-12-04T16:25:09;-0.95;78.63
66594;DHT22;53450;42.584;23.366;2023-12-04T16:27:34;-1.01;78.86
66594;DHT22;53450;42.584;23.366;2023-12-04T16:30:00;-1.13;79.08
66594;DHT22;53450;42.584;23.366;2023-12-04T16:32:26;-1.17;79.39
66594;DHT22;53450;42.584;23.366;2023-12-04T16:34:51;-1.28;79.96
66594;DHT22;53450;42.584;23.366;2023-12-04T16:37:16;-1.29;80.32
66594;DHT22;53450;42.584;23.366;2023-12-04T16:39:42;-1.35;80.61
66594;DHT22;53450;42.584;23.366;2023-12-04T16:42:07;-1.35;80.59
66594;DHT22;53450;42.584;23.366;2023-12-04T16:44:33;-1.39;80.79
66594;DHT22;53450;42.584;23.366;2023-12-04T16:46:58;-1.39;80.68